TAM3665 SBVT-SBGL
Flight info
| Callsign | TAM3665 |
|---|---|
| Flight time | N/A |
| Altitude | 32000 |
| Route | USVAG UN401 MOLSU |
| Aircraft | A320/M-SDE3FGHIRWY/LB1 |
Departure
| Time | 2026-04-16 02:07 |
|---|---|
| Airport | Eurico de Aguiar Salles International Airport (SBVT) |
Arrival
| Time | N/A |
|---|---|
| Airport | Rio Galeão – Tom Jobim International Airport (SBGL) |
| Time | Latitude | Longitude | Altitude | Speed | Heading |
|---|---|---|---|---|---|
| 2026-04-16 01:38 | -20.26497 | -40.28174 | 21 ft | 0 kts | 263° |
| 2026-04-16 01:57 | -20.26497 | -40.28172 | 21 ft | 2 kts | 263° |
| 2026-04-16 01:57 | -20.26493 | -40.28144 | 24 ft | 4 kts | 263° |
| 2026-04-16 01:58 | -20.26490 | -40.28116 | 24 ft | 4 kts | 263° |
| 2026-04-16 01:58 | -20.26486 | -40.28087 | 22 ft | 4 kts | 262° |
| 2026-04-16 01:58 | -20.26484 | -40.28060 | 21 ft | 4 kts | 284° |
| 2026-04-16 01:58 | -20.26497 | -40.28039 | 23 ft | 4 kts | 342° |
| 2026-04-16 01:59 | -20.26504 | -40.28037 | 22 ft | 1 kts | 352° |
| 2026-04-16 02:02 | -20.26481 | -40.28040 | 22 ft | 8 kts | 352° |
| 2026-04-16 02:02 | -20.26401 | -40.28052 | 19 ft | 13 kts | 352° |
| 2026-04-16 02:02 | -20.26301 | -40.28067 | 19 ft | 16 kts | 352° |
| 2026-04-16 02:03 | -20.26181 | -40.28084 | 19 ft | 19 kts | 352° |
| 2026-04-16 02:03 | -20.26040 | -40.28105 | 19 ft | 20 kts | 352° |
| 2026-04-16 02:03 | -20.25887 | -40.28128 | 19 ft | 24 kts | 352° |
| 2026-04-16 02:04 | -20.25554 | -40.28177 | 18 ft | 26 kts | 352° |
| 2026-04-16 02:04 | -20.25403 | -40.28198 | 17 ft | 22 kts | 355° |
| 2026-04-16 02:04 | -20.25289 | -40.28143 | 17 ft | 17 kts | 33° |
| 2026-04-16 02:04 | -20.25182 | -40.28074 | 18 ft | 20 kts | 28° |
| 2026-04-16 02:05 | -20.25040 | -40.28076 | 18 ft | 22 kts | 352° |
| 2026-04-16 02:05 | -20.24876 | -40.28101 | 19 ft | 24 kts | 352° |
| 2026-04-16 02:05 | -20.24784 | -40.28082 | 20 ft | 9 kts | 331° |
| 2026-04-16 02:05 | -20.24799 | -40.28111 | 20 ft | 5 kts | 170° |
| 2026-04-16 02:06 | -20.24804 | -40.28111 | 20 ft | 0 kts | 173° |
| 2026-04-16 02:06 | -20.25044 | -40.28077 | 18 ft | 76 kts | 172° |
| 2026-04-16 02:06 | -20.25797 | -40.27966 | 26 ft | 140 kts | 172° |
| 2026-04-16 02:06 | -20.26825 | -40.27825 | 514 ft | 149 kts | 175° |
| 2026-04-16 02:07 | -20.27855 | -40.27675 | 1197 ft | 150 kts | 176° |
| 2026-04-16 02:07 | -20.28951 | -40.27518 | 1612 ft | 169 kts | 175° |
| 2026-04-16 02:07 | -20.30202 | -40.27338 | 1932 ft | 193 kts | 174° |
| 2026-04-16 02:07 | -20.31606 | -40.27132 | 2323 ft | 214 kts | 173° |
| 2026-04-16 02:08 | -20.33164 | -40.26902 | 2759 ft | 238 kts | 174° |
| 2026-04-16 02:08 | -20.34848 | -40.26651 | 3541 ft | 248 kts | 174° |
| 2026-04-16 02:08 | -20.36565 | -40.26740 | 4407 ft | 253 kts | 200° |
| 2026-04-16 02:08 | -20.37966 | -40.27884 | 5256 ft | 262 kts | 234° |
| 2026-04-16 02:09 | -20.38584 | -40.29736 | 6091 ft | 273 kts | 260° |
| 2026-04-16 02:09 | -20.38697 | -40.31786 | 6948 ft | 279 kts | 268° |
| 2026-04-16 02:09 | -20.38667 | -40.33863 | 7782 ft | 283 kts | 269° |
| 2026-04-16 02:09 | -20.38653 | -40.35986 | 8616 ft | 288 kts | 268° |
| 2026-04-16 02:10 | -20.38707 | -40.38144 | 9445 ft | 293 kts | 266° |
| 2026-04-16 02:10 | -20.38833 | -40.40330 | 10207 ft | 300 kts | 264° |
| 2026-04-16 02:10 | -20.39024 | -40.42636 | 10468 ft | 324 kts | 263° |
| 2026-04-16 02:10 | -20.39270 | -40.45100 | 10730 ft | 345 kts | 262° |
| 2026-04-16 02:11 | -20.39548 | -40.47686 | 11305 ft | 354 kts | 262° |
| 2026-04-16 02:11 | -20.39831 | -40.50307 | 12014 ft | 358 kts | 262° |
| 2026-04-16 02:11 | -20.40113 | -40.52931 | 12719 ft | 362 kts | 262° |
| 2026-04-16 02:11 | -20.40396 | -40.55594 | 13423 ft | 366 kts | 261° |
| 2026-04-16 02:12 | -20.40958 | -40.58256 | 14074 ft | 368 kts | 249° |
| 2026-04-16 02:12 | -20.42082 | -40.60707 | 14712 ft | 368 kts | 236° |
| 2026-04-16 02:12 | -20.43708 | -40.62825 | 15343 ft | 369 kts | 223° |
| 2026-04-16 02:12 | -20.45732 | -40.64511 | 15962 ft | 371 kts | 214° |
| 2026-04-16 02:13 | -20.47866 | -40.66078 | 16579 ft | 373 kts | 215° |
| 2026-04-16 02:13 | -20.50003 | -40.67650 | 17187 ft | 375 kts | 215° |
| 2026-04-16 02:13 | -20.52159 | -40.69240 | 17778 ft | 377 kts | 216° |
| 2026-04-16 02:13 | -20.54325 | -40.70839 | 18360 ft | 380 kts | 216° |
| 2026-04-16 02:14 | -20.56513 | -40.72457 | 18890 ft | 382 kts | 216° |
| 2026-04-16 02:14 | -20.58697 | -40.74073 | 19438 ft | 384 kts | 216° |
| 2026-04-16 02:14 | -20.60902 | -40.75709 | 19986 ft | 386 kts | 216° |
| 2026-04-16 02:14 | -20.63106 | -40.77347 | 20542 ft | 387 kts | 216° |
| 2026-04-16 02:15 | -20.65299 | -40.78972 | 21084 ft | 388 kts | 215° |
| 2026-04-16 02:15 | -20.67470 | -40.80577 | 21602 ft | 390 kts | 215° |
| 2026-04-16 02:15 | -20.69623 | -40.82344 | 22113 ft | 392 kts | 223° |
| 2026-04-16 02:15 | -20.71500 | -40.84460 | 22622 ft | 394 kts | 227° |
| 2026-04-16 02:16 | -20.73331 | -40.86651 | 23114 ft | 396 kts | 227° |
| 2026-04-16 02:16 | -20.75174 | -40.88854 | 23585 ft | 398 kts | 227° |
| 2026-04-16 02:16 | -20.77005 | -40.91044 | 23942 ft | 401 kts | 227° |
| 2026-04-16 02:16 | -20.78861 | -40.93264 | 24340 ft | 402 kts | 227° |
| 2026-04-16 02:17 | -20.80732 | -40.95503 | 24731 ft | 404 kts | 227° |
| 2026-04-16 02:17 | -20.82607 | -40.97744 | 25108 ft | 405 kts | 227° |
| 2026-04-16 02:17 | -20.84488 | -40.99993 | 25465 ft | 407 kts | 227° |
| 2026-04-16 02:17 | -20.86376 | -41.02259 | 25832 ft | 409 kts | 227° |
| 2026-04-16 02:18 | -20.88275 | -41.04538 | 26182 ft | 411 kts | 227° |
| 2026-04-16 02:18 | -20.90188 | -41.06829 | 26537 ft | 413 kts | 227° |
| 2026-04-16 02:18 | -20.92108 | -41.09129 | 26885 ft | 415 kts | 227° |
| 2026-04-16 02:18 | -20.94037 | -41.11440 | 27210 ft | 417 kts | 227° |
| 2026-04-16 02:19 | -20.95974 | -41.13762 | 27546 ft | 419 kts | 227° |
| 2026-04-16 02:19 | -20.97916 | -41.16098 | 27876 ft | 421 kts | 227° |
| 2026-04-16 02:19 | -20.99865 | -41.18445 | 28200 ft | 423 kts | 227° |
| 2026-04-16 02:19 | -21.01829 | -41.20810 | 28507 ft | 425 kts | 227° |
| 2026-04-16 02:20 | -21.03159 | -41.22408 | 28726 ft | 426 kts | 227° |
| 2026-04-16 02:20 | -21.05113 | -41.24755 | 29018 ft | 428 kts | 227° |
| 2026-04-16 02:20 | -21.07102 | -41.27143 | 29308 ft | 430 kts | 227° |
| 2026-04-16 02:20 | -21.09100 | -41.29543 | 29588 ft | 432 kts | 227° |
| 2026-04-16 02:21 | -21.11107 | -41.31954 | 29865 ft | 434 kts | 227° |
| 2026-04-16 02:21 | -21.13118 | -41.34371 | 30127 ft | 436 kts | 227° |
| 2026-04-16 02:21 | -21.15137 | -41.36804 | 30338 ft | 437 kts | 227° |
| 2026-04-16 02:21 | -21.17159 | -41.39243 | 30543 ft | 439 kts | 227° |
| 2026-04-16 02:22 | -21.19187 | -41.41687 | 30832 ft | 438 kts | 227° |
| 2026-04-16 02:22 | -21.21204 | -41.44125 | 31123 ft | 437 kts | 227° |
| 2026-04-16 02:22 | -21.23226 | -41.46572 | 31424 ft | 437 kts | 227° |
| 2026-04-16 02:22 | -21.25242 | -41.49010 | 31727 ft | 436 kts | 226° |
| 2026-04-16 02:23 | -21.27260 | -41.51446 | 31991 ft | 436 kts | 226° |
| 2026-04-16 02:23 | -21.29270 | -41.53874 | 32058 ft | 432 kts | 226° |
| 2026-04-16 02:23 | -21.33232 | -41.58669 | 32056 ft | 428 kts | 226° |
| 2026-04-16 02:24 | -21.37180 | -41.63442 | 32059 ft | 428 kts | 226° |
| 2026-04-16 02:24 | -21.41129 | -41.68224 | 32057 ft | 428 kts | 226° |
| 2026-04-16 02:25 | -21.45069 | -41.73014 | 32051 ft | 428 kts | 227° |
| 2026-04-16 02:25 | -21.49015 | -41.77815 | 32060 ft | 428 kts | 227° |
| 2026-04-16 02:26 | -21.52951 | -41.82600 | 32053 ft | 428 kts | 227° |
| 2026-04-16 02:26 | -21.56898 | -41.87394 | 32039 ft | 428 kts | 227° |
| 2026-04-16 02:27 | -21.60839 | -41.92200 | 32044 ft | 428 kts | 227° |
| 2026-04-16 02:27 | -21.64774 | -41.96999 | 32056 ft | 428 kts | 227° |
| 2026-04-16 02:28 | -21.68682 | -42.01762 | 32035 ft | 428 kts | 227° |
| 2026-04-16 02:28 | -21.72621 | -42.06574 | 32039 ft | 429 kts | 227° |
| 2026-04-16 02:29 | -21.76565 | -42.11395 | 32054 ft | 429 kts | 227° |
| 2026-04-16 02:29 | -21.80508 | -42.16224 | 32041 ft | 429 kts | 227° |
| 2026-04-16 02:30 | -21.84708 | -42.20755 | 31888 ft | 428 kts | 216° |
| 2026-04-16 02:30 | -21.87227 | -42.22461 | 31649 ft | 428 kts | 208° |
| 2026-04-16 02:30 | -21.89837 | -42.24013 | 31416 ft | 429 kts | 209° |
| 2026-04-16 02:31 | -21.92447 | -42.25574 | 31177 ft | 430 kts | 209° |
| 2026-04-16 02:31 | -21.95060 | -42.27147 | 30942 ft | 431 kts | 210° |
| 2026-04-16 02:31 | -21.97677 | -42.28728 | 30717 ft | 432 kts | 210° |
| 2026-04-16 02:31 | -22.00304 | -42.30322 | 30487 ft | 433 kts | 210° |
| 2026-04-16 02:32 | -22.02929 | -42.31915 | 29997 ft | 432 kts | 210° |
| 2026-04-16 02:32 | -22.05530 | -42.33527 | 29250 ft | 430 kts | 214° |
| 2026-04-16 02:32 | -22.07860 | -42.35508 | 28590 ft | 426 kts | 224° |
| 2026-04-16 02:32 | -22.09767 | -42.37924 | 28056 ft | 421 kts | 234° |
| 2026-04-16 02:33 | -22.11210 | -42.40651 | 27506 ft | 418 kts | 244° |
| 2026-04-16 02:33 | -22.12158 | -42.43606 | 26945 ft | 416 kts | 253° |
| 2026-04-16 02:33 | -22.12884 | -42.46613 | 26375 ft | 413 kts | 253° |
| 2026-04-16 02:33 | -22.13604 | -42.49602 | 25841 ft | 410 kts | 253° |
| 2026-04-16 02:34 | -22.14316 | -42.52564 | 25315 ft | 407 kts | 253° |
| 2026-04-16 02:34 | -22.15022 | -42.55501 | 24790 ft | 404 kts | 253° |
| 2026-04-16 02:34 | -22.15727 | -42.58427 | 24296 ft | 401 kts | 253° |
| 2026-04-16 02:34 | -22.16426 | -42.61324 | 23806 ft | 398 kts | 253° |
| 2026-04-16 02:35 | -22.17120 | -42.64206 | 23248 ft | 395 kts | 253° |
| 2026-04-16 02:35 | -22.17806 | -42.67067 | 22699 ft | 392 kts | 253° |
| 2026-04-16 02:35 | -22.18486 | -42.69911 | 22161 ft | 390 kts | 253° |
| 2026-04-16 02:35 | -22.19161 | -42.72739 | 21637 ft | 388 kts | 253° |
| 2026-04-16 02:36 | -22.19835 | -42.75550 | 21140 ft | 386 kts | 253° |
| 2026-04-16 02:36 | -22.20495 | -42.78306 | 20656 ft | 383 kts | 253° |
| 2026-04-16 02:36 | -22.21161 | -42.81084 | 20159 ft | 381 kts | 253° |
| 2026-04-16 02:36 | -22.21825 | -42.83855 | 19679 ft | 379 kts | 254° |
| 2026-04-16 02:37 | -22.22481 | -42.86597 | 19194 ft | 377 kts | 254° |
| 2026-04-16 02:37 | -22.23136 | -42.89334 | 18721 ft | 375 kts | 254° |
| 2026-04-16 02:38 | -22.24990 | -42.97102 | 17229 ft | 371 kts | 254° |
| 2026-04-16 02:38 | -22.25629 | -42.99802 | 16703 ft | 370 kts | 254° |
| 2026-04-16 02:38 | -22.26265 | -43.02490 | 16183 ft | 369 kts | 254° |
| 2026-04-16 02:38 | -22.26903 | -43.05177 | 15680 ft | 369 kts | 254° |
| 2026-04-16 02:39 | -22.27540 | -43.07856 | 15233 ft | 369 kts | 255° |
| 2026-04-16 02:39 | -22.28179 | -43.10551 | 15080 ft | 370 kts | 255° |
| 2026-04-16 02:39 | -22.28813 | -43.13244 | 15094 ft | 371 kts | 255° |
| 2026-04-16 02:39 | -22.29445 | -43.15915 | 15099 ft | 372 kts | 255° |
| 2026-04-16 02:40 | -22.30086 | -43.18617 | 15099 ft | 372 kts | 255° |
| 2026-04-16 02:40 | -22.30727 | -43.21321 | 15099 ft | 372 kts | 255° |
| 2026-04-16 02:40 | -22.31365 | -43.24019 | 15102 ft | 372 kts | 255° |
| 2026-04-16 02:40 | -22.32005 | -43.26730 | 15099 ft | 372 kts | 255° |
| 2026-04-16 02:41 | -22.32642 | -43.29429 | 15101 ft | 372 kts | 255° |
| 2026-04-16 02:41 | -22.33283 | -43.32144 | 15100 ft | 372 kts | 255° |
| 2026-04-16 02:41 | -22.33918 | -43.34839 | 14923 ft | 368 kts | 255° |
| 2026-04-16 02:41 | -22.34549 | -43.37519 | 14441 ft | 367 kts | 255° |
| 2026-04-16 02:42 | -22.35176 | -43.40189 | 13971 ft | 367 kts | 255° |
| 2026-04-16 02:42 | -22.35803 | -43.42867 | 13457 ft | 366 kts | 255° |
| 2026-04-16 02:42 | -22.36684 | -43.45425 | 12977 ft | 362 kts | 241° |
| 2026-04-16 02:42 | -22.38105 | -43.47640 | 12508 ft | 357 kts | 226° |
| 2026-04-16 02:43 | -22.39962 | -43.49379 | 12029 ft | 352 kts | 212° |
| 2026-04-16 02:43 | -22.42104 | -43.50548 | 11851 ft | 336 kts | 199° |
| 2026-04-16 02:43 | -22.44206 | -43.51419 | 11706 ft | 312 kts | 200° |
| 2026-04-16 02:43 | -22.46193 | -43.52253 | 11348 ft | 303 kts | 200° |
| 2026-04-16 02:44 | -22.48131 | -43.53068 | 11230 ft | 293 kts | 200° |
| 2026-04-16 02:44 | -22.49876 | -43.53802 | 11113 ft | 284 kts | 200° |
| 2026-04-16 02:44 | -22.51686 | -43.54564 | 10993 ft | 274 kts | 200° |
| 2026-04-16 02:44 | -22.53434 | -43.55296 | 10875 ft | 265 kts | 198° |
| 2026-04-16 02:45 | -22.55188 | -43.55720 | 10755 ft | 253 kts | 182° |
| 2026-04-16 02:45 | -22.56912 | -43.55616 | 10546 ft | 245 kts | 167° |
| 2026-04-16 02:45 | -22.58512 | -43.55034 | 10273 ft | 242 kts | 153° |
| 2026-04-16 02:45 | -22.60022 | -43.54230 | 9966 ft | 241 kts | 153° |
| 2026-04-16 02:46 | -22.61529 | -43.53437 | 9610 ft | 241 kts | 153° |
| 2026-04-16 02:46 | -22.63016 | -43.52655 | 9291 ft | 239 kts | 151° |
| 2026-04-16 02:46 | -22.64377 | -43.51621 | 8807 ft | 235 kts | 135° |
| 2026-04-16 02:47 | -22.64670 | -43.51299 | 8661 ft | 235 kts | 131° |
| 2026-04-16 02:47 | -22.64764 | -43.51184 | 8621 ft | 234 kts | 128° |
| 2026-04-16 02:47 | -22.64904 | -43.50997 | 8552 ft | 234 kts | 127° |